createdAt,value
2018-11-22T00:01:55.125Z,9.15
2018-11-22T00:04:23.156Z,8.98
2018-11-22T00:06:51.229Z,8.96
2018-11-22T00:09:19.263Z,9.10
2018-11-22T00:11:47.331Z,8.89
2018-11-22T00:14:15.409Z,8.69
2018-11-22T00:16:43.460Z,9.01
2018-11-22T00:19:11.540Z,9.12
2018-11-22T00:21:39.568Z,8.28
2018-11-22T00:24:07.637Z,8.41
2018-11-22T00:26:35.682Z,8.88
2018-11-22T00:29:03.780Z,8.91
2018-11-22T00:31:31.866Z,8.87
2018-11-22T00:33:59.913Z,9.16
2018-11-22T00:36:27.995Z,9.00
2018-11-22T00:38:56.023Z,8.66
2018-11-22T00:41:24.083Z,8.38
2018-11-22T00:43:52.119Z,8.98
2018-11-22T00:46:20.209Z,8.92
2018-11-22T00:48:48.240Z,9.25
2018-11-22T00:51:16.307Z,8.93
2018-11-22T00:53:44.341Z,8.81
2018-11-22T00:56:12.475Z,8.64
2018-11-22T00:58:40.507Z,8.68
2018-11-22T01:01:08.570Z,8.54
2018-11-22T01:03:36.612Z,8.53
2018-11-22T01:06:04.858Z,8.52
2018-11-22T01:08:32.886Z,8.85
2018-11-22T01:11:00.950Z,9.10
2018-11-22T01:13:28.984Z,8.67
2018-11-22T01:15:57.071Z,9.02
2018-11-22T01:18:25.124Z,8.94
2018-11-22T01:20:53.202Z,8.52
2018-11-22T01:23:21.290Z,7.65
2018-11-22T01:25:49.326Z,8.37
2018-11-22T01:28:17.414Z,8.63
2018-11-22T01:30:45.470Z,8.85
2018-11-22T01:33:13.555Z,9.22
2018-11-22T01:35:41.639Z,8.94
2018-11-22T01:38:09.663Z,8.47
2018-11-22T01:40:37.792Z,9.05
2018-11-22T01:43:05.939Z,8.07
2018-11-22T01:45:34.019Z,8.65
2018-11-22T01:48:02.046Z,8.23
2018-11-22T01:50:30.079Z,8.68
2018-11-22T01:52:58.167Z,8.50
2018-11-22T01:55:26.262Z,8.66
2018-11-22T01:57:54.327Z,8.29
2018-11-22T02:00:24.514Z,8.71
2018-11-22T02:02:52.592Z,8.99
2018-11-22T02:05:22.002Z,8.89
2018-11-22T02:07:50.193Z,8.92
2018-11-22T02:10:19.381Z,8.72
2018-11-22T02:12:47.452Z,8.94
2018-11-22T02:15:17.003Z,8.93
2018-11-22T02:17:45.131Z,8.49
2018-11-22T02:20:15.172Z,8.30
2018-11-22T02:22:43.497Z,8.72
2018-11-22T02:25:12.548Z,8.64
2018-11-22T02:27:40.613Z,8.79
2018-11-22T02:30:10.986Z,8.67
2018-11-22T02:32:39.073Z,8.44
2018-11-22T02:35:08.380Z,8.44
2018-11-22T02:37:36.418Z,8.91
2018-11-22T02:40:04.972Z,8.47
2018-11-22T02:42:33.000Z,8.86
2018-11-22T02:45:01.124Z,8.88
2018-11-22T02:47:29.188Z,9.21
2018-11-22T02:49:57.269Z,8.56
2018-11-22T02:52:25.329Z,8.76
2018-11-22T02:54:53.415Z,9.12
2018-11-22T02:57:21.527Z,9.20
2018-11-22T02:59:49.575Z,8.98
2018-11-22T03:02:17.607Z,8.83
2018-11-22T03:04:45.676Z,8.79
2018-11-22T03:07:13.721Z,9.06
2018-11-22T03:09:41.811Z,9.28
2018-11-22T03:12:09.881Z,9.11
2018-11-22T03:14:37.909Z,8.04
2018-11-22T03:17:06.024Z,8.66
2018-11-22T03:19:34.167Z,8.98
2018-11-22T03:22:02.201Z,8.94
2018-11-22T03:24:30.263Z,9.10
2018-11-22T03:26:58.291Z,8.96
2018-11-22T03:29:26.392Z,9.00
2018-11-22T03:31:54.418Z,9.20
2018-11-22T03:34:22.474Z,9.13
2018-11-22T03:36:50.541Z,9.21
2018-11-22T03:39:18.653Z,9.17
2018-11-22T03:41:46.735Z,9.25
2018-11-22T03:44:14.811Z,8.72
2018-11-22T03:46:42.882Z,9.08
2018-11-22T03:49:10.926Z,9.00
2018-11-22T03:51:39.005Z,8.84
2018-11-22T03:54:07.076Z,8.98
2018-11-22T03:56:35.114Z,8.61
2018-11-22T03:59:03.202Z,8.74
2018-11-22T04:01:31.288Z,8.92
2018-11-22T04:03:59.356Z,8.74
2018-11-22T04:06:27.432Z,9.00
2018-11-22T04:08:55.477Z,8.45
2018-11-22T04:11:23.552Z,8.46
2018-11-22T04:13:51.599Z,8.79
2018-11-22T04:16:19.665Z,9.08
2018-11-22T04:18:47.677Z,8.91
2018-11-22T04:21:15.748Z,8.70
2018-11-22T04:23:43.783Z,8.78
2018-11-22T04:26:11.872Z,8.70
2018-11-22T04:28:39.915Z,8.83
2018-11-22T04:31:07.941Z,8.62
2018-11-22T04:33:35.995Z,8.90
2018-11-22T04:36:04.106Z,9.04
2018-11-22T04:38:32.175Z,9.20
2018-11-22T04:41:00.181Z,9.05
2018-11-22T04:43:28.219Z,8.34
2018-11-22T04:45:56.280Z,8.71
2018-11-22T04:48:24.316Z,8.90
2018-11-22T04:50:52.394Z,8.81
2018-11-22T04:53:20.440Z,8.66
2018-11-22T04:55:48.540Z,8.36
2018-11-22T04:58:16.674Z,8.68
2018-11-22T05:00:44.705Z,8.72
2018-11-22T05:03:12.903Z,8.56
2018-11-22T05:05:41.028Z,8.79
2018-11-22T05:08:09.118Z,8.88
2018-11-22T05:10:37.152Z,8.96
2018-11-22T05:13:05.298Z,8.44
2018-11-22T05:15:33.350Z,8.52
2018-11-22T05:18:01.390Z,8.76
2018-11-22T05:20:29.463Z,8.77
2018-11-22T05:22:57.509Z,8.75
2018-11-22T05:25:25.578Z,8.88
2018-11-22T05:27:53.602Z,9.14
2018-11-22T05:30:23.258Z,9.04
2018-11-22T05:32:51.307Z,8.88
2018-11-22T05:35:19.816Z,8.87
2018-11-22T05:37:47.893Z,8.86
2018-11-22T05:40:35.054Z,9.03
2018-11-22T05:43:03.191Z,8.26
2018-11-22T05:45:31.545Z,8.73
2018-11-22T05:47:59.615Z,8.66
2018-11-22T05:50:28.915Z,9.01
2018-11-22T05:52:58.566Z,9.01
2018-11-22T05:55:26.639Z,8.90
2018-11-22T05:57:54.929Z,8.86
2018-11-22T06:00:24.547Z,8.95
2018-11-22T06:02:52.899Z,8.50
2018-11-22T06:05:22.433Z,8.64
2018-11-22T06:07:50.693Z,8.87
2018-11-22T06:10:22.983Z,8.88
2018-11-22T06:12:51.752Z,8.96
2018-11-22T06:15:20.051Z,8.98
2018-11-22T06:17:48.821Z,8.69
2018-11-22T06:20:18.456Z,8.95
2018-11-22T06:22:46.596Z,8.93
2018-11-22T06:25:15.852Z,8.93
2018-11-22T06:27:44.121Z,9.00
2018-11-22T06:30:32.457Z,9.23
2018-11-22T06:33:01.668Z,9.18
2018-11-22T06:35:30.424Z,8.71
2018-11-22T06:37:58.750Z,8.72
2018-11-22T06:40:26.820Z,8.76
2018-11-22T06:42:55.778Z,8.47
2018-11-22T06:45:25.334Z,9.00
2018-11-22T06:47:53.361Z,9.01
2018-11-22T06:50:22.295Z,8.95
2018-11-22T06:52:50.340Z,8.93
2018-11-22T06:55:19.984Z,9.01
2018-11-22T06:57:48.041Z,8.55
2018-11-22T07:00:17.780Z,8.59
2018-11-22T07:02:46.228Z,8.99
2018-11-22T07:05:15.040Z,9.06
2018-11-22T07:07:43.130Z,8.98
2018-11-22T07:10:12.501Z,8.77
2018-11-22T07:12:40.628Z,9.21
2018-11-22T07:15:09.378Z,8.81
2018-11-22T07:17:37.688Z,8.60
2018-11-22T07:20:08.445Z,9.07
2018-11-22T07:22:36.503Z,9.15
2018-11-22T07:25:05.972Z,9.30
2018-11-22T07:27:38.261Z,9.17
2018-11-22T07:30:02.078Z,8.78
2018-11-22T07:32:30.162Z,9.25
2018-11-22T07:34:58.203Z,9.00
2018-11-22T07:37:26.286Z,9.15
2018-11-22T07:39:54.367Z,8.85
2018-11-22T07:42:22.432Z,9.01
2018-11-22T07:45:11.439Z,9.11
2018-11-22T07:47:39.789Z,8.65
2018-11-22T07:50:09.731Z,9.08
2018-11-22T07:52:37.797Z,9.09
2018-11-22T07:55:08.039Z,9.16
2018-11-22T07:57:36.045Z,9.06
2018-11-22T08:00:04.925Z,8.44
2018-11-22T08:02:32.972Z,8.77
2018-11-22T08:05:01.016Z,8.75
2018-11-22T08:07:29.104Z,8.70
2018-11-22T08:09:57.170Z,8.96
2018-11-22T08:12:25.998Z,8.99
2018-11-22T08:14:53.323Z,9.16
2018-11-22T08:17:21.386Z,9.01
2018-11-22T08:19:49.452Z,9.25
2018-11-22T08:22:17.476Z,9.34
2018-11-22T08:24:45.568Z,9.21
2018-11-22T08:27:13.601Z,9.21
2018-11-22T08:29:41.672Z,9.18
2018-11-22T08:32:09.728Z,8.94
2018-11-22T08:34:37.802Z,9.25
2018-11-22T08:37:05.963Z,9.06
2018-11-22T08:39:34.062Z,9.01
2018-11-22T08:42:02.127Z,9.29
2018-11-22T08:44:30.199Z,9.40
2018-11-22T08:46:58.324Z,9.13
2018-11-22T08:49:26.363Z,8.73
2018-11-22T08:51:54.436Z,9.09
2018-11-22T08:54:22.519Z,9.15
2018-11-22T08:56:50.597Z,9.26
2018-11-22T08:59:18.681Z,9.12
2018-11-22T09:01:47.565Z,9.54
2018-11-22T09:04:15.670Z,9.30
2018-11-22T09:06:43.709Z,9.33
2018-11-22T09:09:12.381Z,9.65
2018-11-22T09:11:41.010Z,9.62
2018-11-22T09:14:09.041Z,9.76
2018-11-22T09:16:37.130Z,9.59
2018-11-22T09:19:05.195Z,9.81
2018-11-22T09:21:33.296Z,9.81
2018-11-22T09:24:01.318Z,9.74
2018-11-22T09:26:29.433Z,9.60
2018-11-22T09:28:57.478Z,9.70
2018-11-22T09:31:25.572Z,9.66
2018-11-22T09:33:53.553Z,9.90
2018-11-22T09:36:21.652Z,10.05
2018-11-22T09:38:49.716Z,9.83
2018-11-22T09:41:17.762Z,9.69
2018-11-22T09:43:45.842Z,9.44
2018-11-22T09:46:13.921Z,9.53
2018-11-22T09:48:42.096Z,9.68
2018-11-22T09:51:10.110Z,9.79
2018-11-22T09:53:38.151Z,9.75
2018-11-22T09:56:06.540Z,10.01
2018-11-22T09:58:34.595Z,10.15
2018-11-22T10:01:02.667Z,10.01
2018-11-22T10:03:30.763Z,10.04
2018-11-22T10:05:58.856Z,9.66
2018-11-22T10:08:46.011Z,9.81
2018-11-22T10:11:14.093Z,9.91
2018-11-22T10:13:42.199Z,10.00
2018-11-22T10:16:10.257Z,9.95
2018-11-22T10:18:39.026Z,10.42
2018-11-22T10:21:07.089Z,10.08
2018-11-22T10:23:35.193Z,10.04
2018-11-22T10:26:03.235Z,10.06
2018-11-22T10:28:31.306Z,9.93
2018-11-22T10:30:59.356Z,9.93
2018-11-22T10:33:27.447Z,10.03
2018-11-22T10:35:55.539Z,9.67
2018-11-22T10:38:23.746Z,10.27
2018-11-22T10:40:51.764Z,10.20
2018-11-22T10:43:19.794Z,9.97
2018-11-22T10:45:47.872Z,10.09
2018-11-22T10:48:15.898Z,9.96
2018-11-22T10:50:43.973Z,10.13
2018-11-22T10:53:12.025Z,10.07
2018-11-22T10:55:41.655Z,10.11
2018-11-22T10:58:09.700Z,9.64
2018-11-22T11:00:56.929Z,10.02
2018-11-22T11:03:44.144Z,9.96
2018-11-22T11:06:31.436Z,9.65
2018-11-22T11:08:59.744Z,10.02
2018-11-22T11:11:27.989Z,9.77
2018-11-22T11:13:56.226Z,10.19
2018-11-22T11:16:24.366Z,10.06
2018-11-22T11:18:52.620Z,10.25
2018-11-22T11:21:20.696Z,10.28
2018-11-22T11:23:48.764Z,10.14
2018-11-22T11:26:16.863Z,10.08
2018-11-22T11:28:44.913Z,10.16
2018-11-22T11:31:13.016Z,10.17
2018-11-22T11:33:41.057Z,10.33
2018-11-22T11:36:09.247Z,10.23
2018-11-22T11:38:37.412Z,10.11
2018-11-22T11:41:05.759Z,10.00
2018-11-22T11:43:33.876Z,10.00
2018-11-22T11:46:01.947Z,10.13
2018-11-22T11:48:30.006Z,10.33
2018-11-22T11:50:58.064Z,10.52
2018-11-22T11:53:41.000Z,10.64
2018-11-22T11:55:54.364Z,10.52
2018-11-22T11:58:22.407Z,10.50
2018-11-22T12:00:50.558Z,10.30
2018-11-22T12:03:18.639Z,10.34
2018-11-22T12:05:46.837Z,10.20
2018-11-22T12:08:14.954Z,10.21
2018-11-22T12:10:43.066Z,10.34
2018-11-22T12:13:11.114Z,10.19
2018-11-22T12:15:39.197Z,10.28
2018-11-22T12:18:07.489Z,10.39
2018-11-22T12:20:35.528Z,10.26
2018-11-22T12:23:03.636Z,10.21
2018-11-22T12:25:31.691Z,10.01
2018-11-22T12:28:00.996Z,9.98
2018-11-22T12:30:30.492Z,10.28
2018-11-22T12:32:59.389Z,10.27
2018-11-22T12:35:46.571Z,10.20
2018-11-22T12:38:33.883Z,10.13
2018-11-22T12:41:01.916Z,10.09
2018-11-22T12:43:30.025Z,10.00
2018-11-22T12:45:58.069Z,10.13
2018-11-22T12:48:26.150Z,10.15
2018-11-22T12:50:54.243Z,9.41
2018-11-22T12:53:22.289Z,9.99
2018-11-22T12:55:50.363Z,10.10
2018-11-22T12:58:18.458Z,10.10
2018-11-22T13:00:46.551Z,10.07
2018-11-22T13:03:14.610Z,10.12
2018-11-22T13:05:42.673Z,10.31
2018-11-22T13:08:10.729Z,9.72
2018-11-22T13:10:38.842Z,10.15
2018-11-22T13:13:07.056Z,10.12
2018-11-22T13:15:35.128Z,9.90
2018-11-22T13:18:03.224Z,10.26
2018-11-22T13:20:31.268Z,10.21
2018-11-22T13:22:59.382Z,10.23
2018-11-22T13:25:27.466Z,10.29
2018-11-22T13:27:55.616Z,10.55
2018-11-22T13:30:25.037Z,10.49
2018-11-22T13:32:53.769Z,10.72
2018-11-22T13:35:22.001Z,10.50
2018-11-22T13:37:51.413Z,10.36
2018-11-22T13:40:19.639Z,10.19
2018-11-22T13:42:48.692Z,10.20
2018-11-22T13:45:19.449Z,10.22
2018-11-22T13:47:48.219Z,10.38
2018-11-22T13:50:18.726Z,10.37
2018-11-22T13:52:48.173Z,10.48
2018-11-22T13:55:16.223Z,10.75
2018-11-22T13:57:44.332Z,10.64
2018-11-22T14:00:32.706Z,10.35
2018-11-22T14:03:19.891Z,10.38
2018-11-22T14:06:00.291Z,10.16
2018-11-22T14:08:28.383Z,10.39
2018-11-22T14:11:04.065Z,10.32
2018-11-22T14:13:32.164Z,10.22
2018-11-22T14:16:00.216Z,10.14
2018-11-22T14:18:28.292Z,10.19
2018-11-22T14:20:56.344Z,10.39
2018-11-22T14:23:24.426Z,10.30
2018-11-22T14:25:52.499Z,10.32
2018-11-22T14:28:20.594Z,10.33
2018-11-22T14:30:48.667Z,10.22
2018-11-22T14:33:16.759Z,10.23
2018-11-22T14:35:44.798Z,10.01
2018-11-22T14:38:12.857Z,10.18
2018-11-22T14:40:40.922Z,10.25
2018-11-22T14:43:08.978Z,10.19
2018-11-22T14:45:37.034Z,10.35
2018-11-22T14:48:05.402Z,10.28
2018-11-22T14:51:03.903Z,10.29
2018-11-22T14:53:32.041Z,10.31
2018-11-22T14:56:00.083Z,10.32
2018-11-22T14:58:28.189Z,10.44
2018-11-22T15:00:56.285Z,10.16
2018-11-22T15:03:24.338Z,10.35
2018-11-22T15:05:52.416Z,10.33
2018-11-22T15:08:20.461Z,10.43
2018-11-22T15:10:48.539Z,10.37
2018-11-22T15:13:16.585Z,10.31
2018-11-22T15:15:44.667Z,10.28
2018-11-22T15:18:12.708Z,10.23
2018-11-22T15:20:40.806Z,10.49
2018-11-22T15:23:08.912Z,10.24
2018-11-22T15:25:36.977Z,10.47
2018-11-22T15:28:05.070Z,10.48
2018-11-22T15:30:33.185Z,10.68
2018-11-22T15:33:01.320Z,10.29
2018-11-22T15:35:30.333Z,10.19
2018-11-22T15:37:58.401Z,10.42
2018-11-22T15:40:26.882Z,10.51
2018-11-22T15:42:56.373Z,10.47
2018-11-22T15:45:25.734Z,10.52
2018-11-22T15:47:53.758Z,10.54
2018-11-22T15:50:23.176Z,10.38
2018-11-22T15:52:51.235Z,10.12
2018-11-22T15:55:21.018Z,10.29
2018-11-22T15:57:48.958Z,10.19
2018-11-22T16:00:36.321Z,10.39
2018-11-22T16:03:04.541Z,10.25
2018-11-22T16:05:33.099Z,10.55
2018-11-22T16:08:01.530Z,10.33
2018-11-22T16:10:31.232Z,10.34
2018-11-22T16:13:00.940Z,10.40
2018-11-22T16:15:34.220Z,10.57
2018-11-22T16:18:02.314Z,10.67
2018-11-22T16:20:30.374Z,10.76
2018-11-22T16:22:58.454Z,10.52
2018-11-22T16:25:26.532Z,10.38
2018-11-22T16:27:54.639Z,10.32
2018-11-22T16:30:24.118Z,10.27
2018-11-22T16:32:52.519Z,10.17
2018-11-22T16:35:21.388Z,10.45
2018-11-22T16:37:49.496Z,10.30
2018-11-22T16:40:36.690Z,10.30
2018-11-22T16:43:04.968Z,10.44
2018-11-22T16:45:34.468Z,10.42
2018-11-22T16:48:04.125Z,10.08
2018-11-22T16:50:33.168Z,10.31
2018-11-22T16:53:01.272Z,10.23
2018-11-22T16:55:29.354Z,10.16
2018-11-22T16:57:58.786Z,10.25
2018-11-22T17:00:28.148Z,10.15
2018-11-22T17:02:57.792Z,10.15
2018-11-22T17:05:26.081Z,9.78
2018-11-22T17:07:54.180Z,10.12
2018-11-22T17:10:23.778Z,10.18
2018-11-22T17:12:53.253Z,10.18
2018-11-22T17:15:22.692Z,10.16
2018-11-22T17:17:51.240Z,10.25
2018-11-22T17:20:20.163Z,10.27
2018-11-22T17:22:48.912Z,10.32
2018-11-22T17:25:18.350Z,10.24
2018-11-22T17:27:47.463Z,10.22
2018-11-22T17:30:34.763Z,10.37
2018-11-22T17:33:02.850Z,10.01
2018-11-22T17:35:31.447Z,10.30
2018-11-22T17:38:00.614Z,10.14
2018-11-22T17:40:47.870Z,10.13
2018-11-22T17:43:16.022Z,10.19
2018-11-22T17:45:45.511Z,10.17
2018-11-22T17:48:13.622Z,10.37
2018-11-22T17:50:43.141Z,10.49
2018-11-22T17:53:30.762Z,10.31
2018-11-22T17:55:58.908Z,10.51
2018-11-22T17:58:27.573Z,10.66
2018-11-22T18:00:55.763Z,10.24
2018-11-22T18:03:23.845Z,10.47
2018-11-22T18:05:52.447Z,10.50
2018-11-22T18:08:20.615Z,10.41
2018-11-22T18:10:48.714Z,10.21
2018-11-22T18:13:16.805Z,9.80
2018-11-22T18:16:04.068Z,9.97
2018-11-22T18:18:32.164Z,10.21
2018-11-22T18:21:00.221Z,10.50
2018-11-22T18:23:28.453Z,10.47
2018-11-22T18:25:56.528Z,10.59
2018-11-22T18:28:24.595Z,10.42
2018-11-22T18:30:52.817Z,10.43
2018-11-22T18:33:20.910Z,10.66
2018-11-22T18:35:49.052Z,10.26
2018-11-22T18:38:17.123Z,10.15
2018-11-22T18:40:45.352Z,10.25
2018-11-22T18:43:13.466Z,10.34
2018-11-22T18:45:42.940Z,10.48
2018-11-22T18:48:12.598Z,10.55
2018-11-22T18:50:41.113Z,10.62
2018-11-22T18:53:09.456Z,10.53
2018-11-22T18:55:37.553Z,10.25
2018-11-22T18:58:06.250Z,10.59
2018-11-22T19:00:35.758Z,10.42
2018-11-22T19:03:05.913Z,10.60
2018-11-22T19:05:34.011Z,10.07
2018-11-22T19:08:02.124Z,10.45
2018-11-22T19:10:31.594Z,10.28
2018-11-22T19:13:01.039Z,10.19
2018-11-22T19:15:30.332Z,10.43
2018-11-22T19:17:58.649Z,10.27
2018-11-22T19:20:29.155Z,10.28
2018-11-22T19:22:57.946Z,10.41
2018-11-22T19:25:26.077Z,10.32
2018-11-22T19:28:13.379Z,10.08
2018-11-22T19:30:42.956Z,10.51
2018-11-22T19:33:12.708Z,10.32
2018-11-22T19:35:42.577Z,10.43
2018-11-22T19:38:10.797Z,10.63
2018-11-22T19:40:39.517Z,10.14
2018-11-22T19:43:08.547Z,9.72
2018-11-22T19:45:38.109Z,10.05
2018-11-22T19:48:06.754Z,10.27
2018-11-22T19:50:35.147Z,10.27
2018-11-22T19:53:04.445Z,10.52
2018-11-22T19:55:33.553Z,10.72
2018-11-22T19:58:20.805Z,10.78
2018-11-22T20:00:49.098Z,10.64
2018-11-22T20:03:17.140Z,10.61
2018-11-22T20:05:45.310Z,10.67
2018-11-22T20:08:15.194Z,10.78
2018-11-22T20:10:44.330Z,10.49
2018-11-22T20:13:12.453Z,10.54
2018-11-22T20:15:40.562Z,10.35
2018-11-22T20:18:10.124Z,10.59
2018-11-22T20:20:38.224Z,10.66
2018-11-22T20:23:06.419Z,10.29
2018-11-22T20:25:35.148Z,10.50
2018-11-22T20:28:03.169Z,10.50
2018-11-22T20:30:50.444Z,10.62
2018-11-22T20:33:18.594Z,10.53
2018-11-22T20:35:46.898Z,10.64
2018-11-22T20:38:15.160Z,10.53
2018-11-22T20:40:43.407Z,10.62
2018-11-22T20:43:11.510Z,10.59
2018-11-22T20:45:41.093Z,10.54
2018-11-22T20:48:08.099Z,10.42
2018-11-22T20:50:36.731Z,10.37
2018-11-22T20:53:05.147Z,10.42
2018-11-22T20:55:34.783Z,10.24
2018-11-22T20:58:04.371Z,10.39
2018-11-22T21:00:33.960Z,10.46
2018-11-22T21:03:02.036Z,10.34
2018-11-22T21:05:30.687Z,10.51
2018-11-22T21:07:58.777Z,10.26
2018-11-22T21:10:28.142Z,10.22
2018-11-22T21:12:56.424Z,10.38
2018-11-22T21:15:25.817Z,10.27
2018-11-22T21:17:55.731Z,10.49
2018-11-22T21:20:42.987Z,10.22
2018-11-22T21:23:11.131Z,10.32
2018-11-22T21:25:39.200Z,10.28
2018-11-22T21:28:07.354Z,10.31
2018-11-22T21:30:36.888Z,10.24
2018-11-22T21:33:04.996Z,10.63
2018-11-22T21:35:33.463Z,10.36
2018-11-22T21:38:02.429Z,10.56
2018-11-22T21:40:31.182Z,10.51
2018-11-22T21:42:59.210Z,10.58
2018-11-22T21:45:27.718Z,10.58
2018-11-22T21:47:55.864Z,10.51
2018-11-22T21:50:25.235Z,10.77
2018-11-22T21:52:53.288Z,10.57
2018-11-22T21:55:22.747Z,10.61
2018-11-22T21:57:51.690Z,10.61
2018-11-22T22:00:40.816Z,10.83
2018-11-22T22:03:10.379Z,10.72
2018-11-22T22:05:39.113Z,10.66
2018-11-22T22:08:07.753Z,10.36
2018-11-22T22:10:35.911Z,10.41
2018-11-22T22:13:04.122Z,10.61
2018-11-22T22:15:33.289Z,10.55
2018-11-22T22:18:01.535Z,10.35
2018-11-22T22:20:31.007Z,10.45
2018-11-22T22:22:59.830Z,10.19
2018-11-22T22:25:27.628Z,10.20
2018-11-22T22:27:56.137Z,10.47
2018-11-22T22:30:43.361Z,10.49
2018-11-22T22:33:11.469Z,10.35
2018-11-22T22:35:39.557Z,10.26
2018-11-22T22:38:07.655Z,10.29
2018-11-22T22:40:35.721Z,10.47
2018-11-22T22:43:03.793Z,10.57
2018-11-22T22:45:32.604Z,10.30
2018-11-22T22:48:00.696Z,10.48
2018-11-22T22:50:29.665Z,10.50
2018-11-22T22:52:58.904Z,10.57
2018-11-22T22:55:27.394Z,10.70
2018-11-22T22:57:55.430Z,10.31
2018-11-22T23:00:43.665Z,10.54
2018-11-22T23:03:11.770Z,10.40
2018-11-22T23:05:39.976Z,10.56
2018-11-22T23:08:08.040Z,10.62
2018-11-22T23:10:36.136Z,10.57
2018-11-22T23:13:04.417Z,10.62
2018-11-22T23:15:32.637Z,10.60
2018-11-22T23:18:00.727Z,10.67
2018-11-22T23:20:47.914Z,10.70
2018-11-22T23:23:16.049Z,10.72
2018-11-22T23:25:44.100Z,10.65
2018-11-22T23:28:12.239Z,10.57
2018-11-22T23:30:40.285Z,10.78
2018-11-22T23:33:08.994Z,10.52
2018-11-22T23:35:37.047Z,10.49
2018-11-22T23:38:05.130Z,10.65
2018-11-22T23:40:33.905Z,10.09
2018-11-22T23:43:02.000Z,10.63
2018-11-22T23:45:31.188Z,10.50
2018-11-22T23:47:59.253Z,10.47
2018-11-22T23:50:28.665Z,10.54
2018-11-22T23:52:57.636Z,10.46
2018-11-22T23:55:25.707Z,10.17
2018-11-22T23:57:53.767Z,10.50
